Time;durP1;ratioP1;P1;durP2;ratioP2;P2;SDS_P1;SDS_P2;PMS_P1;PMS_P2;Temp;Humidity;BMP_temperature;BMP_pressure;BME280_temperature;BME280_humidity;BME280_pressure;Samples;Min_cycle;Max_cycle;Signal;HPM_P1;HPM_P2
2022/02/25 00:01:17;;;;;;;0.00;0.00;;;4.60;99.90;;;;;;5030719;28;20252;-83
2022/02/25 00:03:43;;;;;;;0.00;0.00;;;4.60;99.90;;;;;;5030019;28;20186;-83
2022/02/25 00:06:08;;;;;;;0.00;0.00;;;4.60;99.90;;;;;;5028832;28;20240;-84
2022/02/25 00:08:35;;;;;;;0.00;0.00;;;4.60;99.90;;;;;;5029276;28;20210;-83
2022/02/25 00:11:01;;;;;;;0.13;0.13;;;4.60;99.90;;;;;;5029446;28;20213;-83
2022/02/25 00:13:26;;;;;;;0.10;0.10;;;4.60;99.90;;;;;;5026629;28;20236;-83
2022/02/25 00:15:57;;;;;;;0.10;0.10;;;4.60;99.90;;;;;;5027979;28;20208;-83
2022/02/25 00:18:24;;;;;;;0.20;0.20;;;4.60;99.90;;;;;;5024497;28;20235;-84
2022/02/25 00:20:49;;;;;;;0.00;0.00;;;4.60;99.90;;;;;;5029361;28;20655;-84
2022/02/25 00:23:15;;;;;;;0.00;0.00;;;4.60;99.90;;;;;;5026413;28;20188;-83
2022/02/25 00:25:41;;;;;;;0.00;0.00;;;4.50;99.90;;;;;;5026378;28;20273;-83
2022/02/25 00:28:07;;;;;;;0.10;0.10;;;4.50;99.90;;;;;;5029396;28;20271;-83
2022/02/25 00:30:32;;;;;;;0.10;0.10;;;4.40;99.90;;;;;;5026079;28;20192;-83
2022/02/25 00:32:58;;;;;;;0.10;0.10;;;4.30;99.90;;;;;;5027786;28;20372;-83
2022/02/25 00:35:23;;;;;;;0.10;0.10;;;4.30;99.90;;;;;;5021950;28;20186;-83
2022/02/25 00:37:49;;;;;;;0.83;0.10;;;4.30;99.90;;;;;;5027120;28;20201;-84
2022/02/25 00:40:14;;;;;;;0.07;0.07;;;4.30;99.90;;;;;;5025513;28;20178;-84
2022/02/25 00:42:40;;;;;;;0.10;0.10;;;4.20;99.90;;;;;;5030084;28;20193;-83
2022/02/25 00:45:07;;;;;;;0.00;0.00;;;4.20;99.90;;;;;;5027312;28;20201;-83
2022/02/25 00:47:32;;;;;;;0.10;0.10;;;4.20;99.90;;;;;;5028062;28;20217;-83
2022/02/25 00:49:58;;;;;;;0.10;0.10;;;4.10;99.90;;;;;;5021942;28;20195;-83
2022/02/25 00:52:24;;;;;;;0.10;0.10;;;4.00;99.90;;;;;;5027477;28;20680;-83
2022/02/25 00:54:49;;;;;;;0.10;0.10;;;4.10;99.90;;;;;;5045632;28;20182;-83
2022/02/25 00:57:15;;;;;;;0.10;0.10;;;4.00;99.90;;;;;;5023272;28;20687;-82
2022/02/25 00:59:40;;;;;;;0.10;0.10;;;4.00;99.90;;;;;;5028304;28;20192;-83
2022/02/25 01:02:06;;;;;;;0.07;0.07;;;3.90;99.90;;;;;;5022400;28;20192;-83
2022/02/25 01:04:31;;;;;;;0.10;0.10;;;3.90;99.90;;;;;;5028307;28;20205;-83
2022/02/25 01:06:57;;;;;;;0.10;0.10;;;3.80;99.90;;;;;;5029719;28;20185;-84
2022/02/25 01:09:24;;;;;;;0.10;0.10;;;3.80;99.90;;;;;;5028658;28;20181;-83
2022/02/25 01:11:49;;;;;;;0.10;0.10;;;3.80;99.90;;;;;;5027651;28;20194;-84
2022/02/25 01:14:15;;;;;;;0.13;0.13;;;3.70;99.90;;;;;;5028617;28;20180;-83
2022/02/25 01:16:44;;;;;;;0.20;0.20;;;3.70;99.90;;;;;;5026281;28;20298;-84
2022/02/25 01:19:10;;;;;;;0.10;0.10;;;3.60;99.90;;;;;;5029867;28;20197;-83
2022/02/25 01:21:35;;;;;;;0.13;0.13;;;3.60;99.90;;;;;;5021494;28;20189;-83
2022/02/25 01:24:01;;;;;;;9.03;0.40;;;3.60;99.90;;;;;;5027547;28;20225;-83
2022/02/25 01:26:28;;;;;;;0.10;0.10;;;3.60;99.90;;;;;;5026258;28;20193;-83
2022/02/25 01:28:53;;;;;;;0.10;0.10;;;3.50;99.90;;;;;;5027760;28;20254;-84
2022/02/25 01:31:19;;;;;;;0.13;0.13;;;3.60;99.90;;;;;;5028307;28;20193;-83
2022/02/25 01:33:46;;;;;;;0.10;0.10;;;3.50;99.90;;;;;;5021007;28;20768;-83
2022/02/25 01:36:12;;;;;;;0.10;0.10;;;3.50;99.90;;;;;;5025204;28;20276;-83
2022/02/25 01:38:37;;;;;;;0.10;0.10;;;3.50;99.90;;;;;;5019499;28;20293;-83
2022/02/25 01:41:04;;;;;;;0.10;0.10;;;3.50;99.90;;;;;;5027568;28;20203;-84
2022/02/25 01:43:30;;;;;;;0.30;0.30;;;3.40;99.90;;;;;;5026815;28;20193;-84
2022/02/25 01:45:55;;;;;;;0.10;0.10;;;3.40;99.90;;;;;;5023673;28;20195;-84
2022/02/25 01:48:21;;;;;;;0.20;0.20;;;3.40;99.90;;;;;;5024832;28;20199;-84
2022/02/25 01:50:47;;;;;;;2.13;1.23;;;3.30;99.90;;;;;;5022972;28;20195;-84
2022/02/25 01:53:13;;;;;;;0.10;0.10;;;3.30;99.90;;;;;;5028276;28;20212;-83
2022/02/25 01:55:41;;;;;;;0.10;0.10;;;3.30;99.90;;;;;;5026262;28;20212;-84
2022/02/25 01:58:07;;;;;;;0.00;0.00;;;3.20;99.90;;;;;;5023229;28;20702;-83
2022/02/25 02:00:34;;;;;;;0.00;0.00;;;3.20;99.90;;;;;;5024017;28;20211;-84
2022/02/25 02:03:00;;;;;;;9.23;0.50;;;3.10;99.90;;;;;;5027768;28;20188;-84
2022/02/25 02:05:26;;;;;;;0.00;0.00;;;3.10;99.90;;;;;;5024722;28;20209;-84
2022/02/25 02:07:52;;;;;;;0.10;0.10;;;3.20;99.90;;;;;;5026389;28;20212;-84
2022/02/25 02:10:18;;;;;;;0.10;0.10;;;3.20;99.90;;;;;;5025064;28;20192;-83
2022/02/25 02:12:43;;;;;;;0.63;0.63;;;3.10;99.90;;;;;;5023929;28;21143;-84
2022/02/25 02:15:10;;;;;;;0.20;0.20;;;3.10;99.90;;;;;;5024179;28;20740;-84
2022/02/25 02:17:36;;;;;;;0.10;0.10;;;3.10;99.90;;;;;;5021967;28;20218;-84
2022/02/25 02:20:03;;;;;;;0.00;0.00;;;3.10;99.90;;;;;;5026001;28;20177;-83
2022/02/25 02:22:29;;;;;;;0.40;0.37;;;3.10;99.90;;;;;;5024994;28;20214;-83
2022/02/25 02:24:55;;;;;;;0.00;0.00;;;3.10;99.90;;;;;;5026141;28;20709;-84
2022/02/25 02:27:20;;;;;;;0.10;0.10;;;3.10;99.90;;;;;;5023936;28;20219;-84
2022/02/25 02:29:46;;;;;;;0.00;0.00;;;3.00;99.90;;;;;;5026774;28;21135;-84
2022/02/25 02:32:13;;;;;;;0.10;0.10;;;3.00;99.90;;;;;;5021817;28;20227;-84
2022/02/25 02:34:40;;;;;;;0.10;0.10;;;3.00;99.90;;;;;;5022301;28;20735;-83
2022/02/25 02:37:10;;;;;;;6.90;0.57;;;3.00;99.90;;;;;;5042992;28;20895;-84
2022/02/25 02:39:36;;;;;;;0.10;0.10;;;3.10;99.90;;;;;;5026758;28;21264;-83
2022/02/25 02:42:02;;;;;;;1.67;0.27;;;3.20;99.90;;;;;;5025101;28;20196;-84
2022/02/25 02:44:28;;;;;;;0.47;0.40;;;3.20;99.90;;;;;;5022197;28;20188;-84
2022/02/25 02:46:53;;;;;;;0.93;0.87;;;3.20;99.90;;;;;;5021216;28;20196;-84
2022/02/25 02:49:19;;;;;;;0.63;0.37;;;3.10;99.90;;;;;;5026247;28;20666;-83
2022/02/25 02:51:44;;;;;;;0.40;0.13;;;3.10;99.90;;;;;;5017611;28;20212;-84
2022/02/25 02:54:10;;;;;;;2.00;0.37;;;3.10;99.90;;;;;;5025717;28;20367;-83
2022/02/25 02:56:36;;;;;;;0.10;0.10;;;3.00;99.90;;;;;;5024098;28;20646;-84
2022/02/25 02:59:01;;;;;;;0.10;0.10;;;2.90;99.90;;;;;;5027570;28;20200;-84
2022/02/25 03:01:30;;;;;;;0.00;0.00;;;2.90;99.90;;;;;;5025422;28;20191;-85
2022/02/25 03:03:56;;;;;;;0.00;0.00;;;2.90;99.90;;;;;;5024759;28;20184;-83
2022/02/25 03:06:23;;;;;;;0.00;0.00;;;2.90;99.90;;;;;;5027079;28;20198;-84
2022/02/25 03:08:48;;;;;;;0.00;0.00;;;2.80;99.90;;;;;;5026837;28;20282;-84
2022/02/25 03:11:14;;;;;;;0.10;0.10;;;2.90;99.90;;;;;;5021437;28;20677;-83
2022/02/25 03:13:40;;;;;;;0.10;0.10;;;2.90;99.90;;;;;;5026607;28;20212;-84
2022/02/25 03:16:06;;;;;;;0.10;0.10;;;2.90;99.90;;;;;;5028336;28;20198;-82
2022/02/25 03:18:31;;;;;;;0.13;0.13;;;2.80;99.90;;;;;;5025428;28;20914;-84
2022/02/25 03:20:57;;;;;;;0.10;0.10;;;2.80;99.90;;;;;;5025204;28;20175;-84
2022/02/25 03:23:22;;;;;;;0.40;0.40;;;2.80;99.90;;;;;;5027297;28;20201;-83
2022/02/25 03:25:48;;;;;;;0.00;0.00;;;2.80;99.90;;;;;;5028857;28;20187;-84
2022/02/25 03:28:13;;;;;;;0.10;0.10;;;2.80;99.90;;;;;;5027295;28;20831;-84
2022/02/25 03:30:39;;;;;;;0.00;0.00;;;2.70;99.90;;;;;;5029815;28;20192;-84
2022/02/25 03:33:04;;;;;;;0.10;0.10;;;2.70;99.90;;;;;;5039306;28;20222;-84
2022/02/25 03:35:32;;;;;;;0.10;0.10;;;2.70;99.90;;;;;;5041801;28;20190;-84
2022/02/25 03:37:57;;;;;;;0.00;0.00;;;2.60;99.90;;;;;;5037764;28;20271;-83
2022/02/25 03:40:23;;;;;;;0.00;0.00;;;2.60;99.90;;;;;;5028842;28;20195;-83
2022/02/25 03:42:49;;;;;;;1.10;1.10;;;2.60;99.90;;;;;;5026496;28;20192;-83
2022/02/25 03:45:15;;;;;;;0.17;0.17;;;2.60;99.90;;;;;;5032452;28;20221;-83
2022/02/25 03:47:40;;;;;;;0.27;0.27;;;2.60;99.90;;;;;;5029145;28;20306;-84
2022/02/25 03:50:08;;;;;;;0.10;0.10;;;2.60;99.90;;;;;;5029228;28;20233;-83
2022/02/25 03:52:34;;;;;;;0.30;0.30;;;2.60;99.90;;;;;;5029753;28;20216;-83
2022/02/25 03:54:59;;;;;;;0.00;0.00;;;2.60;99.90;;;;;;5026333;28;20209;-84
2022/02/25 03:57:25;;;;;;;0.10;0.10;;;2.60;99.90;;;;;;5032337;28;20199;-83
2022/02/25 03:59:50;;;;;;;0.10;0.10;;;2.60;99.90;;;;;;5031964;28;20217;-83
2022/02/25 04:02:16;;;;;;;0.10;0.10;;;2.60;99.90;;;;;;5023434;28;20184;-83
2022/02/25 04:04:41;;;;;;;0.00;0.00;;;2.60;99.90;;;;;;5029608;28;20199;-83
2022/02/25 04:07:07;;;;;;;0.00;0.00;;;2.60;99.90;;;;;;5021986;28;20215;-84
2022/02/25 04:09:32;;;;;;;0.10;0.10;;;2.50;99.90;;;;;;5029601;28;20804;-83
2022/02/25 04:11:58;;;;;;;0.00;0.00;;;2.50;99.90;;;;;;5031394;28;20266;-83
2022/02/25 04:14:24;;;;;;;0.10;0.10;;;2.50;99.90;;;;;;5025780;28;20271;-82
2022/02/25 04:16:51;;;;;;;0.30;0.30;;;2.50;99.90;;;;;;5025500;28;20182;-83
2022/02/25 04:19:18;;;;;;;0.10;0.10;;;2.50;99.90;;;;;;5025379;28;20185;-83
2022/02/25 04:21:44;;;;;;;0.10;0.10;;;2.50;99.90;;;;;;5021136;28;20190;-83
2022/02/25 04:24:10;;;;;;;0.10;0.10;;;2.40;99.90;;;;;;5028922;28;20192;-84
2022/02/25 04:26:36;;;;;;;0.10;0.10;;;2.50;99.90;;;;;;5023784;28;20553;-84
2022/02/25 04:29:02;;;;;;;0.17;0.17;;;2.50;99.90;;;;;;5022871;28;20219;-83
2022/02/25 04:31:28;;;;;;;0.10;0.10;;;2.50;99.90;;;;;;5029041;28;20186;-83
2022/02/25 04:33:53;;;;;;;0.27;0.27;;;2.50;99.90;;;;;;5025643;28;20201;-83
2022/02/25 04:36:22;;;;;;;0.77;0.70;;;2.50;99.90;;;;;;5026421;28;20192;-83
2022/02/25 04:38:49;;;;;;;0.00;0.00;;;2.50;99.90;;;;;;5027460;28;20212;-84
2022/02/25 04:41:15;;;;;;;0.07;0.07;;;2.50;99.90;;;;;;5027212;28;20191;-84
2022/02/25 04:43:41;;;;;;;0.60;0.60;;;2.50;99.90;;;;;;5024729;28;20200;-83
2022/02/25 04:46:13;;;;;;;0.20;0.20;;;2.50;99.90;;;;;;5030849;28;20195;-83
2022/02/25 04:48:39;;;;;;;0.10;0.10;;;2.50;99.90;;;;;;5030160;28;20214;-83
2022/02/25 04:51:05;;;;;;;0.90;0.63;;;2.50;99.90;;;;;;5025232;28;21323;-83
2022/02/25 04:53:31;;;;;;;0.00;0.00;;;2.50;99.90;;;;;;5025107;28;20251;-84
2022/02/25 04:55:56;;;;;;;0.10;0.10;;;2.50;99.90;;;;;;5022497;28;20199;-83
2022/02/25 04:58:22;;;;;;;1.60;0.17;;;2.40;99.90;;;;;;5024762;28;20211;-84
2022/02/25 05:00:48;;;;;;;0.10;0.10;;;2.40;99.90;;;;;;5028128;28;20183;-83
2022/02/25 05:03:13;;;;;;;0.00;0.00;;;2.40;99.90;;;;;;5026731;28;20186;-83
2022/02/25 05:05:39;;;;;;;0.73;0.40;;;2.40;99.90;;;;;;5024168;28;20214;-83
2022/02/25 05:08:04;;;;;;;0.00;0.00;;;2.40;99.90;;;;;;5029318;28;20207;-84
2022/02/25 05:10:30;;;;;;;0.10;0.10;;;2.40;99.90;;;;;;5022431;28;20256;-84
2022/02/25 05:12:56;;;;;;;0.77;0.27;;;2.40;99.90;;;;;;5019455;28;20214;-84
2022/02/25 05:20:52;;;;;;;0.00;0.00;;;2.40;99.90;;;;;;5027790;28;20225;-84
2022/02/25 05:23:19;;;;;;;0.00;0.00;;;2.30;99.90;;;;;;5027199;28;20824;-83
2022/02/25 05:25:44;;;;;;;0.00;0.00;;;2.30;99.90;;;;;;5026747;28;20332;-83
2022/02/25 05:28:11;;;;;;;0.00;0.00;;;2.40;99.90;;;;;;5024274;28;20299;-83
2022/02/25 05:30:36;;;;;;;0.10;0.10;;;2.40;99.90;;;;;;5023248;28;20223;-83
2022/02/25 05:33:03;;;;;;;0.00;0.00;;;2.40;99.90;;;;;;5026904;28;20743;-84
2022/02/25 05:35:28;;;;;;;0.07;0.07;;;2.40;99.90;;;;;;5027112;28;20221;-83
2022/02/25 05:37:54;;;;;;;0.00;0.00;;;2.50;99.90;;;;;;5027241;28;20229;-84
2022/02/25 05:40:21;;;;;;;0.10;0.10;;;2.50;99.90;;;;;;5024163;28;20184;-83
2022/02/25 05:42:48;;;;;;;0.20;0.20;;;2.50;99.90;;;;;;5028820;28;20200;-83
2022/02/25 05:45:14;;;;;;;0.10;0.10;;;2.60;99.90;;;;;;5026650;28;20193;-83
2022/02/25 05:47:40;;;;;;;0.10;0.10;;;2.60;99.90;;;;;;5025420;28;20271;-84
2022/02/25 05:50:08;;;;;;;0.10;0.10;;;2.60;99.90;;;;;;5027524;28;20200;-84
2022/02/25 05:52:34;;;;;;;0.10;0.10;;;2.60;99.90;;;;;;5024141;28;20687;-84
2022/02/25 05:55:00;;;;;;;0.00;0.00;;;2.60;99.90;;;;;;5027145;28;20231;-83
2022/02/25 05:57:25;;;;;;;0.00;0.00;;;2.60;99.90;;;;;;5026617;28;20213;-83
2022/02/25 05:59:51;;;;;;;0.10;0.10;;;2.60;99.90;;;;;;5021086;28;20197;-84
2022/02/25 06:02:17;;;;;;;0.60;0.60;;;2.60;99.90;;;;;;5021524;28;20198;-84
2022/02/25 06:04:42;;;;;;;0.10;0.10;;;2.60;99.90;;;;;;5020951;28;20306;-83
2022/02/25 06:07:08;;;;;;;0.00;0.00;;;2.50;99.90;;;;;;5027201;28;20216;-83
2022/02/25 06:09:33;;;;;;;0.30;0.30;;;2.50;99.90;;;;;;5022439;28;20561;-83
2022/02/25 06:11:59;;;;;;;0.10;0.10;;;2.40;99.90;;;;;;5018792;28;20198;-83
2022/02/25 06:14:25;;;;;;;0.20;0.20;;;2.40;99.90;;;;;;5023295;28;20283;-83
2022/02/25 06:16:51;;;;;;;0.03;0.03;;;2.50;99.90;;;;;;5026590;28;20218;-84
2022/02/25 06:19:16;;;;;;;0.73;0.47;;;2.50;99.90;;;;;;5026697;28;20830;-84
2022/02/25 06:21:42;;;;;;;0.10;0.10;;;2.50;99.90;;;;;;5031620;28;20273;-84
2022/02/25 06:24:08;;;;;;;0.10;0.10;;;2.50;99.90;;;;;;5021836;28;20574;-83
2022/02/25 06:26:33;;;;;;;0.07;0.07;;;2.40;99.90;;;;;;5022898;28;20270;-84
2022/02/25 06:28:59;;;;;;;0.10;0.10;;;2.50;99.90;;;;;;5020093;28;20261;-84
2022/02/25 06:31:25;;;;;;;0.10;0.10;;;2.40;99.90;;;;;;5020918;28;20199;-85
2022/02/25 06:33:51;;;;;;;0.10;0.10;;;2.40;99.90;;;;;;5024240;28;20211;-85
2022/02/25 06:36:16;;;;;;;0.00;0.00;;;2.40;99.90;;;;;;5025547;28;20179;-85
2022/02/25 06:38:42;;;;;;;0.10;0.10;;;2.50;99.90;;;;;;5018561;28;20202;-84
2022/02/25 06:41:07;;;;;;;0.00;0.00;;;2.50;99.90;;;;;;5026137;28;20181;-84
2022/02/25 06:43:33;;;;;;;1.10;0.30;;;2.60;99.90;;;;;;5017987;28;20531;-83
2022/02/25 06:45:59;;;;;;;0.10;0.10;;;2.60;99.90;;;;;;5016885;28;20186;-83
2022/02/25 06:48:24;;;;;;;0.10;0.10;;;2.60;99.90;;;;;;5016384;28;20236;-83
2022/02/25 06:50:50;;;;;;;0.30;0.30;;;2.60;99.90;;;;;;5018339;28;20188;-82
2022/02/25 06:53:17;;;;;;;0.00;0.00;;;2.70;99.90;;;;;;5016493;28;20556;-82
2022/02/25 06:55:43;;;;;;;0.10;0.10;;;2.80;99.90;;;;;;5039318;28;20178;-82
2022/02/25 06:58:09;;;;;;;0.10;0.10;;;2.90;99.90;;;;;;5020841;28;20691;-82
2022/02/25 07:00:36;;;;;;;0.10;0.10;;;3.00;99.90;;;;;;5020176;28;20198;-83
2022/02/25 07:03:02;;;;;;;0.10;0.10;;;3.00;99.90;;;;;;5021321;28;20273;-82
2022/02/25 07:05:28;;;;;;;0.10;0.10;;;3.20;99.90;;;;;;5029346;28;20216;-83
2022/02/25 07:07:54;;;;;;;0.10;0.10;;;3.30;99.90;;;;;;5036740;28;21105;-82
2022/02/25 07:10:20;;;;;;;0.10;0.10;;;3.40;99.90;;;;;;5043494;28;20187;-83
2022/02/25 07:12:46;;;;;;;0.10;0.10;;;3.40;99.90;;;;;;5026985;28;20230;-82
2022/02/25 07:15:12;;;;;;;0.47;0.47;;;3.50;99.90;;;;;;5028298;28;20191;-83
2022/02/25 07:17:38;;;;;;;0.10;0.10;;;3.60;99.90;;;;;;5025059;28;20208;-84
2022/02/25 07:20:04;;;;;;;1.53;0.73;;;3.70;99.90;;;;;;5028665;28;20180;-84
2022/02/25 07:22:30;;;;;;;0.00;0.00;;;3.80;99.90;;;;;;5026608;28;20188;-84
2022/02/25 07:24:56;;;;;;;0.00;0.00;;;3.90;99.90;;;;;;5029458;28;20199;-84
2022/02/25 07:27:21;;;;;;;0.20;0.20;;;4.00;99.90;;;;;;5024022;28;20293;-84
2022/02/25 07:29:47;;;;;;;0.10;0.10;;;4.10;99.90;;;;;;5025045;28;20285;-84
2022/02/25 07:32:12;;;;;;;0.43;0.30;;;4.10;99.90;;;;;;5025902;28;20220;-85
2022/02/25 07:34:39;;;;;;;0.73;0.40;;;4.20;99.90;;;;;;5024427;28;20187;-85
2022/02/25 07:37:05;;;;;;;0.53;0.53;;;4.20;99.90;;;;;;5026643;28;20665;-85
2022/02/25 07:39:31;;;;;;;1.37;0.60;;;4.30;99.90;;;;;;5023302;28;20197;-85
2022/02/25 07:41:56;;;;;;;0.10;0.10;;;4.20;99.90;;;;;;5025980;28;20204;-82
2022/02/25 07:44:22;;;;;;;0.10;0.10;;;4.40;99.90;;;;;;5026914;28;21322;-83
2022/02/25 07:46:47;;;;;;;0.10;0.10;;;4.40;99.90;;;;;;5022443;28;20206;-83
2022/02/25 07:49:13;;;;;;;0.10;0.10;;;4.50;99.90;;;;;;5023773;28;20272;-81
2022/02/25 07:51:39;;;;;;;0.10;0.10;;;4.60;99.90;;;;;;5026326;28;20226;-82
2022/02/25 07:54:04;;;;;;;0.00;0.00;;;4.70;99.90;;;;;;5026235;28;20208;-82
2022/02/25 07:56:30;;;;;;;0.10;0.10;;;4.70;99.90;;;;;;5026117;28;20216;-83
2022/02/25 07:58:56;;;;;;;0.20;0.20;;;4.80;99.90;;;;;;5023200;28;20205;-85
2022/02/25 08:01:22;;;;;;;0.30;0.30;;;4.90;99.90;;;;;;5026035;28;20185;-84
2022/02/25 08:03:48;;;;;;;0.10;0.10;;;4.90;99.90;;;;;;5023162;28;20189;-85
2022/02/25 08:06:14;;;;;;;0.53;0.53;;;5.00;99.90;;;;;;5021947;28;20202;-84
2022/02/25 08:08:40;;;;;;;0.10;0.10;;;5.10;99.90;;;;;;5016529;28;20312;-85
2022/02/25 08:11:06;;;;;;;1.07;0.47;;;5.10;99.90;;;;;;5024760;28;20660;-84
2022/02/25 08:13:31;;;;;;;0.30;0.10;;;5.20;99.90;;;;;;5020725;28;20285;-85
2022/02/25 08:15:57;;;;;;;0.00;0.00;;;5.40;99.90;;;;;;5022746;28;20215;-85
2022/02/25 08:18:23;;;;;;;1.40;0.40;;;5.40;99.90;;;;;;5023620;28;20785;-85
2022/02/25 08:20:49;;;;;;;0.83;0.47;;;5.50;99.90;;;;;;5024030;28;20183;-84
2022/02/25 08:23:15;;;;;;;0.50;0.50;;;5.60;99.90;;;;;;5024773;28;20317;-84
2022/02/25 08:25:41;;;;;;;0.43;0.43;;;5.60;99.90;;;;;;5023511;28;20197;-85
2022/02/25 08:28:08;;;;;;;0.53;0.27;;;5.80;99.90;;;;;;5025037;28;21239;-84
2022/02/25 08:30:35;;;;;;;0.40;0.40;;;5.90;99.90;;;;;;5017304;28;20358;-85
2022/02/25 08:33:02;;;;;;;0.10;0.10;;;5.90;99.90;;;;;;5022679;28;20608;-82
2022/02/25 08:35:30;;;;;;;0.40;0.40;;;6.00;99.90;;;;;;5019980;28;20247;-83
2022/02/25 08:37:55;;;;;;;0.10;0.10;;;6.10;99.90;;;;;;5019120;28;20218;-83
2022/02/25 08:40:21;;;;;;;0.30;0.30;;;6.00;99.90;;;;;;5022106;28;20209;-82
2022/02/25 08:42:46;;;;;;;0.30;0.30;;;6.00;99.90;;;;;;5019307;28;20212;-83
2022/02/25 08:45:13;;;;;;;0.00;0.00;;;6.00;99.90;;;;;;5023875;28;20235;-82
2022/02/25 08:47:41;;;;;;;1.53;0.60;;;6.00;99.90;;;;;;5019051;28;20210;-83
2022/02/25 08:50:08;;;;;;;0.20;0.20;;;5.90;99.90;;;;;;5021217;28;20288;-83
2022/02/25 08:52:34;;;;;;;0.10;0.10;;;5.90;99.90;;;;;;5019022;28;20233;-82
2022/02/25 08:55:00;;;;;;;0.10;0.10;;;5.80;99.90;;;;;;5023348;28;21201;-82
2022/02/25 08:57:25;;;;;;;0.10;0.10;;;5.90;99.90;;;;;;5022816;28;20272;-81
2022/02/25 08:59:51;;;;;;;0.40;0.20;;;6.00;99.90;;;;;;5025958;28;20664;-82
2022/02/25 09:02:16;;;;;;;0.00;0.00;;;6.00;99.90;;;;;;5018272;28;20711;-82
2022/02/25 09:04:42;;;;;;;0.40;0.40;;;6.10;99.90;;;;;;5019488;28;20202;-82
2022/02/25 09:07:09;;;;;;;1.00;0.43;;;6.20;99.90;;;;;;5020486;28;20207;-82
2022/02/25 09:09:35;;;;;;;0.10;0.10;;;6.20;99.90;;;;;;5022531;28;20198;-81
2022/02/25 09:12:00;;;;;;;0.00;0.00;;;6.40;99.90;;;;;;5018956;28;20178;-83
2022/02/25 09:14:28;;;;;;;0.37;0.37;;;6.30;99.90;;;;;;5024717;28;20200;-83
2022/02/25 09:16:54;;;;;;;1.80;0.63;;;6.30;99.90;;;;;;5020590;28;20175;-83
2022/02/25 09:19:19;;;;;;;0.10;0.10;;;6.30;99.90;;;;;;5025509;28;20187;-82
2022/02/25 09:21:45;;;;;;;0.20;0.20;;;6.50;99.90;;;;;;5023532;28;20671;-82
2022/02/25 09:24:11;;;;;;;0.20;0.20;;;6.50;99.90;;;;;;5026015;28;20608;-82
2022/02/25 09:26:37;;;;;;;0.23;0.23;;;6.60;99.90;;;;;;5024049;28;20193;-83
2022/02/25 09:29:03;;;;;;;0.27;0.27;;;6.50;99.90;;;;;;5024403;28;20238;-83
2022/02/25 09:31:28;;;;;;;0.40;0.40;;;6.40;99.90;;;;;;5023402;28;20190;-87
2022/02/25 09:33:55;;;;;;;0.10;0.10;;;6.50;99.90;;;;;;5016102;28;20213;-87
2022/02/25 09:36:22;;;;;;;0.37;0.37;;;6.60;99.90;;;;;;5022963;28;20178;-85
2022/02/25 09:38:47;;;;;;;0.30;0.17;;;6.80;99.90;;;;;;5021470;28;20210;-82
2022/02/25 09:41:13;;;;;;;1.40;0.30;;;6.80;99.90;;;;;;5020143;28;21149;-82
2022/02/25 09:43:38;;;;;;;1.13;0.43;;;6.70;99.90;;;;;;5021885;28;20257;-83
2022/02/25 09:46:06;;;;;;;0.10;0.10;;;6.80;99.90;;;;;;5025250;28;21048;-83
2022/02/25 09:48:32;;;;;;;0.10;0.10;;;7.00;99.90;;;;;;5030534;28;20210;-82
2022/02/25 09:50:58;;;;;;;0.10;0.10;;;7.20;99.90;;;;;;5020815;28;20537;-83
2022/02/25 09:53:24;;;;;;;0.67;0.67;;;7.30;99.90;;;;;;5021892;28;20218;-83
2022/02/25 09:55:50;;;;;;;4.27;0.40;;;7.30;99.90;;;;;;5019196;28;20183;-82
2022/02/25 09:58:16;;;;;;;0.57;0.57;;;7.10;99.90;;;;;;5016217;28;20206;-82
2022/02/25 10:00:43;;;;;;;0.30;0.30;;;7.10;99.90;;;;;;5035318;28;20190;-82
2022/02/25 10:03:17;;;;;;;0.30;0.30;;;7.00;99.90;;;;;;5011159;28;20212;-82
2022/02/25 10:05:45;;;;;;;0.53;0.53;;;6.90;99.90;;;;;;5013257;28;20193;-82
2022/02/25 10:08:13;;;;;;;0.20;0.20;;;6.80;99.90;;;;;;5019917;28;20211;-85
2022/02/25 10:10:51;;;;;;;0.10;0.10;;;7.00;99.90;;;;;;5016117;28;20563;-82
2022/02/25 10:13:22;;;;;;;0.90;0.87;;;6.80;99.90;;;;;;5020357;28;20711;-82
2022/02/25 10:15:50;;;;;;;0.10;0.10;;;6.80;99.90;;;;;;5017075;28;20179;-82
2022/02/25 10:18:21;;;;;;;1.43;1.17;;;6.70;99.90;;;;;;5024690;28;20638;-82
2022/02/25 10:20:47;;;;;;;0.60;0.57;;;6.70;99.90;;;;;;5023883;28;20179;-82
2022/02/25 10:23:21;;;;;;;0.47;0.47;;;7.00;99.90;;;;;;5024626;28;20558;-83
2022/02/25 10:25:48;;;;;;;0.10;0.10;;;7.10;99.90;;;;;;5023529;28;20293;-83
2022/02/25 10:28:14;;;;;;;0.53;0.47;;;7.00;99.90;;;;;;5022805;28;20208;-83
2022/02/25 10:30:40;;;;;;;0.10;0.10;;;6.90;99.90;;;;;;5025284;28;20186;-83
2022/02/25 10:33:06;;;;;;;1.90;0.43;;;7.10;99.90;;;;;;5024188;28;20218;-83
2022/02/25 10:35:35;;;;;;;0.33;0.30;;;7.10;99.90;;;;;;5019708;28;20197;-83
2022/02/25 10:38:09;;;;;;;0.43;0.43;;;7.00;99.90;;;;;;5024477;28;20222;-82
2022/02/25 10:40:40;;;;;;;0.70;0.27;;;7.20;99.90;;;;;;5023532;28;20194;-82
2022/02/25 10:43:21;;;;;;;0.17;0.17;;;7.30;99.90;;;;;;5023045;28;20244;-81
2022/02/25 10:45:49;;;;;;;0.20;0.20;;;7.20;99.90;;;;;;5025981;28;20186;-83
2022/02/25 10:48:17;;;;;;;0.10;0.10;;;7.20;99.90;;;;;;5020656;28;20202;-83
2022/02/25 10:50:47;;;;;;;0.10;0.10;;;7.00;99.90;;;;;;5026609;28;20629;-83
2022/02/25 10:53:14;;;;;;;0.10;0.10;;;6.90;99.90;;;;;;5026733;28;20210;-83
2022/02/25 10:55:40;;;;;;;1.27;0.37;;;6.90;99.90;;;;;;5021193;28;20206;-83
2022/02/25 10:58:06;;;;;;;1.27;0.67;;;6.90;99.90;;;;;;5022454;28;20210;-83
2022/02/25 11:00:32;;;;;;;0.10;0.10;;;6.90;99.90;;;;;;5025316;28;20200;-82
2022/02/25 11:03:02;;;;;;;0.20;0.20;;;7.00;99.90;;;;;;5023995;28;20191;-83
2022/02/25 11:05:32;;;;;;;0.00;0.00;;;7.10;99.90;;;;;;5022788;28;20575;-83
2022/02/25 11:08:03;;;;;;;0.20;0.20;;;7.00;99.90;;;;;;5021741;28;20217;-84
2022/02/25 11:10:33;;;;;;;0.10;0.10;;;6.90;99.90;;;;;;5018317;28;20544;-83
2022/02/25 11:13:04;;;;;;;0.20;0.20;;;6.90;99.90;;;;;;5022523;28;20277;-84
2022/02/25 11:15:31;;;;;;;0.10;0.10;;;6.90;99.90;;;;;;5020582;28;20185;-82
2022/02/25 11:17:57;;;;;;;0.20;0.20;;;7.00;99.90;;;;;;5022224;28;20212;-83
2022/02/25 11:20:28;;;;;;;0.17;0.10;;;6.90;99.90;;;;;;5019112;28;20187;-84
2022/02/25 11:23:01;;;;;;;0.10;0.10;;;7.00;99.90;;;;;;5022382;28;20244;-83
2022/02/25 11:25:27;;;;;;;0.10;0.10;;;6.80;99.90;;;;;;5019459;28;20189;-82
2022/02/25 11:27:53;;;;;;;0.03;0.03;;;6.70;99.90;;;;;;5018730;28;20265;-83
2022/02/25 11:30:40;;;;;;;0.40;0.40;;;6.80;99.90;;;;;;5020373;28;20194;-83
2022/02/25 11:33:18;;;;;;;0.70;0.70;;;6.70;99.90;;;;;;5019970;28;20217;-81
2022/02/25 11:35:47;;;;;;;0.13;0.13;;;6.70;99.90;;;;;;5020763;28;20605;-81
2022/02/25 11:38:13;;;;;;;0.10;0.10;;;6.70;99.90;;;;;;5021506;28;20207;-81
2022/02/25 11:40:54;;;;;;;0.10;0.10;;;6.80;99.90;;;;;;5023498;28;21221;-81
2022/02/25 11:43:34;;;;;;;0.17;0.17;;;6.90;99.90;;;;;;5020825;28;20201;-81
2022/02/25 11:46:00;;;;;;;0.10;0.10;;;7.00;99.90;;;;;;5023263;28;20332;-82
2022/02/25 11:48:36;;;;;;;0.27;0.27;;;7.10;99.90;;;;;;5025319;28;20210;-81
2022/02/25 11:51:03;;;;;;;0.10;0.10;;;7.30;99.90;;;;;;5026084;28;20178;-82
2022/02/25 11:53:28;;;;;;;1.83;0.63;;;7.50;99.90;;;;;;5019938;28;20208;-82
2022/02/25 11:56:12;;;;;;;0.10;0.10;;;7.70;99.90;;;;;;5017084;28;20187;-83
2022/02/25 11:58:50;;;;;;;0.57;0.20;;;7.90;99.90;;;;;;5021317;28;20213;-82
2022/02/25 12:01:18;;;;;;;0.13;0.03;;;8.20;99.90;;;;;;5019261;28;20214;-81
2022/02/25 12:04:05;;;;;;;0.50;0.50;;;8.20;99.90;;;;;;5024398;28;20197;-82
2022/02/25 12:07:02;;;;;;;4.33;0.40;;;8.10;99.90;;;;;;5024579;28;20740;-82
2022/02/25 12:09:49;;;;;;;6.23;0.20;;;8.30;99.90;;;;;;5021793;28;20208;-83
2022/02/25 12:12:23;;;;;;;0.10;0.10;;;8.30;99.90;;;;;;5022641;28;20226;-82
2022/02/25 12:15:15;;;;;;;0.10;0.10;;;8.10;99.90;;;;;;5023011;28;20255;-82
2022/02/25 12:17:55;;;;;;;0.10;0.10;;;8.00;99.90;;;;;;5021243;28;20290;-82
2022/02/25 12:20:27;;;;;;;0.13;0.13;;;7.80;99.90;;;;;;5020001;28;21071;-82
2022/02/25 12:22:54;;;;;;;0.03;0.03;;;7.80;99.90;;;;;;5020927;28;20215;-82
2022/02/25 12:25:43;;;;;;;0.20;0.20;;;7.60;99.90;;;;;;5021143;28;20597;-82
2022/02/25 12:28:27;;;;;;;2.03;0.20;;;7.60;99.90;;;;;;5022774;28;20785;-83
2022/02/25 12:31:01;;;;;;;0.30;0.30;;;7.60;99.90;;;;;;5022120;28;20672;-82
2022/02/25 12:33:39;;;;;;;0.10;0.10;;;7.60;99.90;;;;;;5022339;28;20223;-82
2022/02/25 12:36:17;;;;;;;0.10;0.10;;;7.60;99.90;;;;;;5023999;28;20182;-81
2022/02/25 12:38:47;;;;;;;0.77;0.60;;;7.70;99.90;;;;;;5020406;28;20206;-82
2022/02/25 12:41:16;;;;;;;0.20;0.20;;;7.80;99.90;;;;;;5021732;28;20187;-82
2022/02/25 12:43:46;;;;;;;0.20;0.20;;;8.10;99.90;;;;;;5020857;28;20260;-82
2022/02/25 12:46:11;;;;;;;0.10;0.10;;;8.40;99.90;;;;;;5040473;28;20196;-82
2022/02/25 12:48:37;;;;;;;0.10;0.10;;;8.60;99.90;;;;;;5019709;28;20213;-82
2022/02/25 12:51:03;;;;;;;0.00;0.00;;;9.20;99.90;;;;;;5021024;28;20190;-82
2022/02/25 12:53:29;;;;;;;0.10;0.10;;;9.20;99.90;;;;;;5022195;28;20701;-82
2022/02/25 12:55:56;;;;;;;0.27;0.27;;;9.30;99.90;;;;;;5017584;28;20269;-82
2022/02/25 12:58:35;;;;;;;1.60;1.50;;;9.30;99.90;;;;;;5018823;28;20566;-82
2022/02/25 13:01:03;;;;;;;0.07;0.07;;;9.60;99.90;;;;;;5017120;28;20181;-82
2022/02/25 13:03:29;;;;;;;0.47;0.33;;;9.50;99.90;;;;;;5023359;28;20664;-82